createdAt,value
2023-03-06T00:02:05.697Z,18.48
2023-03-06T00:04:32.248Z,18.33
2023-03-06T00:06:58.792Z,18.13
2023-03-06T00:09:25.310Z,17.92
2023-03-06T00:11:51.980Z,18.10
2023-03-06T00:14:18.462Z,20.05
2023-03-06T00:16:44.918Z,15.95
2023-03-06T00:19:11.442Z,17.75
2023-03-06T00:21:40.881Z,18.58
2023-03-06T00:24:07.490Z,16.97
2023-03-06T00:26:33.923Z,15.25
2023-03-06T00:29:00.464Z,17.20
2023-03-06T00:31:26.978Z,15.23
2023-03-06T00:33:53.540Z,14.10
2023-03-06T00:36:19.990Z,15.53
2023-03-06T00:38:46.469Z,16.20
2023-03-06T00:41:13.617Z,14.57
2023-03-06T00:43:40.157Z,16.75
2023-03-06T00:46:07.083Z,14.73
2023-03-06T00:48:34.088Z,16.80
2023-03-06T00:51:00.781Z,14.65
2023-03-06T00:53:27.527Z,18.48
2023-03-06T00:55:54.068Z,16.10
2023-03-06T00:58:20.502Z,14.32
2023-03-06T01:00:46.936Z,16.93
2023-03-06T01:03:13.481Z,17.63
2023-03-06T01:05:40.294Z,16.77
2023-03-06T01:08:07.077Z,18.85
2023-03-06T01:10:33.571Z,16.52
2023-03-06T01:13:00.120Z,17.97
2023-03-06T01:15:26.536Z,20.25
2023-03-06T01:17:54.064Z,17.85
2023-03-06T01:20:23.944Z,17.88
2023-03-06T01:22:50.476Z,17.77
2023-03-06T01:25:17.090Z,20.93
2023-03-06T01:27:43.630Z,20.92
2023-03-06T01:30:10.960Z,20.05
2023-03-06T01:32:37.461Z,17.73
2023-03-06T01:35:04.266Z,16.40
2023-03-06T01:37:30.803Z,19.50
2023-03-06T01:39:57.330Z,18.38
2023-03-06T01:42:23.778Z,19.40
2023-03-06T01:45:27.096Z,19.67
2023-03-06T01:47:53.612Z,16.23
2023-03-06T01:50:20.155Z,16.57
2023-03-06T01:52:52.612Z,19.15
2023-03-06T01:55:26.990Z,21.25
2023-03-06T01:57:57.734Z,18.25
2023-03-06T02:00:26.876Z,20.33
2023-03-06T02:03:10.682Z,18.30
2023-03-06T02:05:38.210Z,18.33
2023-03-06T02:08:06.648Z,19.02
2023-03-06T02:10:33.896Z,18.20
2023-03-06T02:13:00.942Z,18.15
2023-03-06T02:15:29.632Z,18.87
2023-03-06T02:17:56.696Z,19.92
2023-03-06T02:20:38.998Z,19.15
2023-03-06T02:23:17.163Z,20.17
2023-03-06T02:25:47.290Z,22.10
2023-03-06T02:28:17.136Z,27.33
2023-03-06T02:30:45.316Z,22.83
2023-03-06T02:33:17.450Z,24.45
2023-03-06T02:35:50.977Z,29.48
2023-03-06T02:38:23.403Z,29.55
2023-03-06T02:40:52.159Z,31.43
2023-03-06T02:43:24.299Z,30.90
2023-03-06T02:45:51.737Z,34.10
2023-03-06T02:48:19.758Z,30.15
2023-03-06T02:50:47.457Z,28.38
2023-03-06T02:53:16.412Z,27.07
2023-03-06T02:55:42.967Z,29.08
2023-03-06T02:58:09.911Z,27.80
2023-03-06T03:00:36.760Z,27.05
2023-03-06T03:03:03.842Z,26.48
2023-03-06T03:05:30.282Z,29.67
2023-03-06T03:07:56.841Z,26.42
2023-03-06T03:10:23.597Z,25.25
2023-03-06T03:12:50.552Z,30.35
2023-03-06T03:15:17.763Z,29.40
2023-03-06T03:17:44.247Z,27.33
2023-03-06T03:20:14.315Z,30.38
2023-03-06T03:22:41.397Z,32.38
2023-03-06T03:25:08.953Z,36.75
2023-03-06T03:27:35.384Z,33.17
2023-03-06T03:30:01.818Z,37.20
2023-03-06T03:32:28.295Z,36.67
2023-03-06T03:34:55.875Z,36.97
2023-03-06T03:37:22.423Z,39.60
2023-03-06T03:39:48.886Z,39.75
2023-03-06T03:42:15.422Z,37.60
2023-03-06T03:44:41.847Z,42.33
2023-03-06T03:47:08.412Z,40.70
2023-03-06T03:49:34.920Z,43.58
2023-03-06T03:52:01.370Z,47.75
2023-03-06T03:54:27.774Z,44.87
2023-03-06T03:56:54.265Z,46.80
2023-03-06T03:59:20.687Z,42.67
2023-03-06T04:01:47.185Z,40.28
2023-03-06T04:04:13.767Z,43.13
2023-03-06T04:06:40.206Z,49.57
2023-03-06T04:09:07.016Z,48.13
2023-03-06T04:11:33.423Z,41.45
2023-03-06T04:13:59.849Z,42.47
2023-03-06T04:16:26.411Z,49.17
2023-03-06T04:18:52.848Z,51.97
2023-03-06T04:21:19.244Z,49.88
2023-03-06T04:23:45.696Z,42.33
2023-03-06T04:26:12.230Z,46.70
2023-03-06T04:28:38.777Z,41.53
2023-03-06T04:31:05.506Z,42.00
2023-03-06T04:33:32.008Z,47.45
2023-03-06T04:35:58.440Z,45.30
2023-03-06T04:38:24.853Z,50.00
2023-03-06T04:40:51.362Z,42.88
2023-03-06T04:43:17.837Z,51.87
2023-03-06T04:45:44.367Z,42.67
2023-03-06T04:48:14.599Z,39.55
2023-03-06T04:50:41.107Z,47.40
2023-03-06T04:53:07.879Z,45.05
2023-03-06T04:55:34.572Z,45.93
2023-03-06T04:58:00.972Z,48.92
2023-03-06T05:00:28.389Z,49.97
2023-03-06T05:02:54.820Z,45.40
2023-03-06T05:05:21.247Z,40.40
2023-03-06T05:07:47.682Z,44.47
2023-03-06T05:10:16.902Z,48.03
2023-03-06T05:12:43.715Z,49.70
2023-03-06T05:15:11.554Z,51.50
2023-03-06T05:17:38.507Z,50.45
2023-03-06T05:20:06.966Z,53.73
2023-03-06T05:22:34.590Z,48.22
2023-03-06T05:25:01.121Z,52.67
2023-03-06T05:27:28.231Z,51.88
2023-03-06T05:29:54.849Z,49.58
2023-03-06T05:32:21.730Z,57.03
2023-03-06T05:34:49.054Z,51.70
2023-03-06T05:37:15.629Z,53.35
2023-03-06T05:39:42.299Z,57.42
2023-03-06T05:42:08.751Z,59.53
2023-03-06T05:44:35.756Z,55.13
2023-03-06T05:47:02.562Z,51.58
2023-03-06T05:49:36.075Z,55.38
2023-03-06T05:52:04.200Z,61.42
2023-03-06T05:54:35.207Z,50.22
2023-03-06T05:57:02.380Z,55.30
2023-03-06T05:59:28.763Z,59.95
2023-03-06T06:01:55.903Z,64.45
2023-03-06T06:04:23.464Z,58.92
2023-03-06T06:06:58.775Z,57.70
2023-03-06T06:09:26.187Z,62.80
2023-03-06T06:11:55.210Z,60.45
2023-03-06T06:14:21.660Z,67.60
2023-03-06T06:16:48.615Z,65.18
2023-03-06T06:19:15.049Z,67.32
2023-03-06T06:21:41.519Z,65.00
2023-03-06T06:24:08.114Z,73.78
2023-03-06T06:26:34.815Z,68.75
2023-03-06T06:29:03.280Z,74.43
2023-03-06T06:31:29.780Z,84.68
2023-03-06T06:33:56.288Z,86.60
2023-03-06T06:36:22.726Z,92.28
2023-03-06T06:38:49.895Z,100.38
2023-03-06T06:41:39.286Z,96.88
2023-03-06T06:44:08.998Z,94.22
2023-03-06T06:49:24.598Z,88.63
2023-03-06T06:51:51.022Z,95.45
2023-03-06T06:54:17.460Z,82.30
2023-03-06T06:56:43.956Z,92.53
2023-03-06T06:59:16.493Z,88.20
2023-03-06T07:01:44.046Z,86.03
2023-03-06T07:04:14.117Z,80.35
2023-03-06T07:06:41.433Z,87.55
2023-03-06T07:09:08.189Z,97.53
2023-03-06T07:11:34.739Z,89.27
2023-03-06T07:14:01.180Z,81.57
2023-03-06T07:16:27.642Z,87.75
2023-03-06T07:18:54.128Z,96.45
2023-03-06T07:21:20.647Z,79.28
2023-03-06T07:23:47.118Z,89.20
2023-03-06T07:26:13.588Z,80.68
2023-03-06T07:28:51.475Z,72.70
2023-03-06T07:31:20.946Z,72.80
2023-03-06T07:33:51.311Z,78.65
2023-03-06T07:36:18.433Z,69.13
2023-03-06T07:38:45.289Z,72.30
2023-03-06T07:41:13.266Z,66.93
2023-03-06T07:43:41.112Z,69.70
2023-03-06T07:46:08.083Z,61.00
2023-03-06T07:48:35.954Z,57.43
2023-03-06T07:51:05.685Z,51.03
2023-03-06T07:53:32.442Z,54.25
2023-03-06T07:55:59.240Z,56.70
2023-03-06T07:58:26.672Z,62.40
2023-03-06T08:00:53.185Z,58.17
2023-03-06T08:03:19.739Z,54.20
2023-03-06T08:05:46.290Z,63.47
2023-03-06T08:08:12.892Z,60.13
2023-03-06T08:10:39.351Z,60.00
2023-03-06T08:13:06.500Z,55.70
2023-03-06T08:15:32.960Z,58.20
2023-03-06T08:17:59.433Z,57.95
2023-03-06T08:20:25.955Z,53.70
2023-03-06T08:22:52.383Z,54.65
2023-03-06T08:25:18.783Z,60.40
2023-03-06T08:27:45.218Z,62.17
2023-03-06T08:30:12.409Z,63.67
2023-03-06T08:32:39.022Z,66.90
2023-03-06T08:35:05.998Z,63.47
2023-03-06T08:37:32.468Z,61.23
2023-03-06T08:39:58.940Z,60.58
2023-03-06T08:42:25.361Z,58.03
2023-03-06T08:44:51.795Z,60.08
2023-03-06T08:47:18.313Z,58.17
2023-03-06T08:49:44.796Z,60.63
2023-03-06T08:52:11.288Z,59.50
2023-03-06T08:54:37.768Z,57.00
2023-03-06T08:57:04.233Z,49.90
2023-03-06T08:59:30.720Z,50.28
2023-03-06T09:01:57.221Z,42.97
2023-03-06T09:04:23.683Z,44.42
2023-03-06T09:06:50.201Z,44.10
2023-03-06T09:09:16.691Z,43.22
2023-03-06T09:11:43.154Z,38.03
2023-03-06T09:14:09.586Z,35.73
2023-03-06T09:16:36.063Z,35.40
2023-03-06T09:19:02.635Z,33.55
2023-03-06T09:21:29.106Z,34.22
2023-03-06T09:23:56.374Z,32.10
2023-03-06T09:26:28.073Z,26.57
2023-03-06T09:28:59.490Z,27.33
2023-03-06T09:31:25.943Z,28.20
2023-03-06T09:33:52.396Z,28.70
2023-03-06T09:36:21.589Z,26.98
2023-03-06T09:38:48.654Z,23.60
2023-03-06T09:41:37.403Z,22.05
2023-03-06T09:44:25.620Z,21.95
2023-03-06T09:47:11.226Z,21.45
2023-03-06T09:50:22.791Z,19.25
2023-03-06T09:53:26.123Z,19.33
2023-03-06T09:56:00.795Z,18.13
2023-03-06T09:58:30.074Z,18.23
2023-03-06T10:01:16.214Z,19.15
2023-03-06T10:03:54.221Z,17.33
2023-03-06T10:06:31.240Z,17.30
2023-03-06T10:09:06.738Z,19.92
2023-03-06T10:11:43.515Z,20.23
2023-03-06T10:14:28.534Z,16.35
2023-03-06T10:16:55.302Z,18.90
2023-03-06T10:19:22.032Z,17.73
2023-03-06T10:22:04.074Z,20.17
2023-03-06T10:25:08.205Z,17.73
2023-03-06T10:27:48.510Z,19.25
2023-03-06T10:30:40.267Z,19.15
2023-03-06T10:33:36.126Z,19.73
2023-03-06T10:36:02.664Z,22.05
2023-03-06T10:38:32.249Z,19.67
2023-03-06T10:41:10.938Z,18.17
2023-03-06T10:43:45.488Z,18.00
2023-03-06T10:46:26.392Z,18.57
2023-03-06T10:49:01.914Z,19.50
2023-03-06T10:51:30.558Z,19.52
2023-03-06T10:54:00.156Z,21.95
2023-03-06T10:56:31.465Z,21.83
2023-03-06T10:59:18.625Z,19.47
2023-03-06T11:01:51.606Z,22.25
2023-03-06T11:04:20.853Z,23.35
2023-03-06T11:06:47.472Z,24.67
2023-03-06T11:09:21.658Z,22.55
2023-03-06T11:11:49.410Z,21.90
2023-03-06T11:14:18.803Z,18.23
2023-03-06T11:16:53.339Z,20.10
2023-03-06T11:19:21.849Z,21.10
2023-03-06T11:22:26.820Z,19.65
2023-03-06T11:24:54.866Z,22.03
2023-03-06T11:27:26.522Z,19.80
2023-03-06T11:29:55.981Z,19.70
2023-03-06T11:32:42.404Z,20.25
2023-03-06T11:35:44.960Z,21.23
2023-03-06T11:38:18.876Z,21.93
2023-03-06T11:40:45.267Z,21.15
2023-03-06T11:43:17.120Z,20.73
2023-03-06T11:45:56.092Z,19.80
2023-03-06T11:48:33.071Z,17.58
2023-03-06T11:51:09.258Z,17.50
2023-03-06T11:53:39.244Z,16.85
2023-03-06T11:56:21.449Z,17.90
2023-03-06T11:59:03.210Z,18.75
2023-03-06T12:02:04.612Z,16.88
2023-03-06T12:04:51.368Z,15.83
2023-03-06T12:07:26.687Z,15.77
2023-03-06T12:09:59.111Z,18.95
2023-03-06T12:12:25.523Z,15.75
2023-03-06T12:15:10.054Z,15.15
2023-03-06T12:18:01.408Z,15.17
2023-03-06T12:20:49.721Z,18.60
2023-03-06T12:23:38.113Z,21.20
2023-03-06T12:26:42.119Z,20.58
2023-03-06T12:29:41.110Z,19.55
2023-03-06T12:32:44.947Z,18.87
2023-03-06T12:35:48.491Z,18.65
2023-03-06T12:38:43.776Z,16.23
2023-03-06T12:41:47.689Z,15.43
2023-03-06T12:44:33.005Z,15.18
2023-03-06T12:47:04.906Z,13.73
2023-03-06T12:49:33.469Z,14.63
2023-03-06T12:52:02.112Z,12.60
2023-03-06T12:54:33.265Z,12.57
2023-03-06T12:57:00.745Z,14.95
2023-03-06T12:59:44.863Z,15.20
2023-03-06T13:02:11.279Z,13.68
2023-03-06T13:04:59.321Z,15.55
2023-03-06T13:07:54.077Z,14.23
2023-03-06T13:10:40.964Z,15.48
2023-03-06T13:13:33.619Z,14.27
2023-03-06T13:16:34.561Z,15.27
2023-03-06T13:19:16.642Z,15.48
2023-03-06T13:21:55.337Z,15.63
2023-03-06T13:24:27.406Z,14.48
2023-03-06T13:27:05.939Z,15.50
2023-03-06T13:29:38.277Z,15.40
2023-03-06T13:32:12.318Z,17.05
2023-03-06T13:34:43.887Z,18.23
2023-03-06T13:37:19.562Z,16.17
2023-03-06T13:39:54.902Z,17.43
2023-03-06T13:42:31.282Z,18.85
2023-03-06T13:45:07.520Z,17.83
2023-03-06T13:48:15.568Z,21.45
2023-03-06T13:50:46.917Z,17.85
2023-03-06T13:53:19.512Z,18.03
2023-03-06T13:56:18.737Z,18.52
2023-03-06T13:58:54.227Z,17.25
2023-03-06T14:01:23.849Z,16.88
2023-03-06T14:04:27.575Z,17.58
2023-03-06T14:07:20.096Z,16.87
2023-03-06T14:09:59.725Z,20.05
2023-03-06T14:12:32.925Z,19.08
2023-03-06T14:15:04.370Z,21.38
2023-03-06T14:17:37.471Z,20.00
2023-03-06T14:20:16.404Z,21.23
2023-03-06T14:22:42.842Z,20.70
2023-03-06T14:25:28.561Z,21.80
2023-03-06T14:27:58.274Z,22.65
2023-03-06T14:30:32.136Z,21.75
2023-03-06T14:32:59.076Z,25.60
2023-03-06T14:35:31.003Z,25.25
2023-03-06T14:38:03.921Z,22.48
2023-03-06T14:40:42.525Z,23.77
2023-03-06T14:43:21.042Z,22.35
2023-03-06T14:45:52.616Z,31.60
2023-03-06T14:48:19.816Z,24.33
2023-03-06T14:50:56.870Z,25.42
2023-03-06T14:53:32.104Z,25.25
2023-03-06T14:56:00.897Z,26.33
2023-03-06T14:58:40.238Z,24.63
2023-03-06T15:01:09.392Z,27.13
2023-03-06T15:03:43.411Z,28.42
2023-03-06T15:06:15.220Z,28.05
2023-03-06T15:08:45.340Z,28.25
2023-03-06T15:11:11.826Z,30.77
2023-03-06T15:13:38.322Z,27.02
2023-03-06T15:16:08.812Z,28.52
2023-03-06T15:18:35.222Z,28.70
2023-03-06T15:21:10.675Z,29.25
2023-03-06T15:23:42.601Z,29.30
2023-03-06T15:26:20.756Z,27.85
2023-03-06T15:28:59.973Z,25.13
2023-03-06T15:31:40.382Z,27.27
2023-03-06T15:34:06.769Z,28.00
2023-03-06T15:36:37.709Z,26.80
2023-03-06T15:39:34.748Z,24.55
2023-03-06T15:42:20.987Z,26.17
2023-03-06T15:44:50.536Z,25.95
2023-03-06T15:47:17.523Z,26.17
2023-03-06T15:49:43.985Z,22.00
2023-03-06T15:52:10.426Z,20.38
2023-03-06T15:54:37.075Z,23.90
2023-03-06T15:57:13.508Z,22.52
2023-03-06T15:59:44.368Z,24.73
2023-03-06T16:02:19.241Z,24.30
2023-03-06T16:04:46.850Z,25.65
2023-03-06T16:07:14.260Z,24.75
2023-03-06T16:09:42.188Z,23.80
2023-03-06T16:12:20.118Z,27.02
2023-03-06T16:14:48.237Z,26.10
2023-03-06T16:17:15.993Z,25.90
2023-03-06T16:19:43.010Z,26.23
2023-03-06T16:22:09.515Z,32.40
2023-03-06T16:24:35.949Z,26.02
2023-03-06T16:27:02.906Z,25.03
2023-03-06T16:29:29.950Z,25.95
2023-03-06T16:31:57.909Z,25.05
2023-03-06T16:34:25.317Z,25.58
2023-03-06T16:36:51.888Z,34.97
2023-03-06T16:39:21.138Z,27.90
2023-03-06T16:41:47.891Z,26.23
2023-03-06T16:44:14.329Z,24.23
2023-03-06T16:46:45.446Z,22.77
2023-03-06T16:49:19.210Z,22.85
2023-03-06T16:51:45.768Z,21.13
2023-03-06T16:54:12.935Z,24.23
2023-03-06T16:56:39.440Z,25.33
2023-03-06T16:59:06.083Z,22.88
2023-03-06T17:01:32.713Z,24.08
2023-03-06T17:03:59.484Z,23.93
2023-03-06T17:06:26.057Z,24.58
2023-03-06T17:08:52.616Z,27.70
2023-03-06T17:11:19.097Z,27.60
2023-03-06T17:13:45.904Z,28.98
2023-03-06T17:16:14.078Z,25.43
2023-03-06T17:18:40.619Z,27.52
2023-03-06T17:21:20.461Z,27.42
2023-03-06T17:23:47.192Z,33.45
2023-03-06T17:26:18.797Z,32.40
2023-03-06T17:28:45.924Z,30.70
2023-03-06T17:31:20.848Z,30.75
2023-03-06T17:33:47.469Z,33.60
2023-03-06T17:36:14.854Z,30.80
2023-03-06T17:38:42.224Z,31.08
2023-03-06T17:41:09.865Z,31.97
2023-03-06T17:43:37.505Z,31.13
2023-03-06T17:46:09.023Z,31.45
2023-03-06T17:48:36.193Z,36.55
2023-03-06T17:51:03.090Z,32.67
2023-03-06T17:53:29.585Z,33.10
2023-03-06T17:55:56.243Z,35.40
2023-03-06T17:58:22.632Z,37.38
2023-03-06T18:00:49.145Z,37.10
2023-03-06T18:03:15.750Z,36.63
2023-03-06T18:05:42.456Z,36.40
2023-03-06T18:08:09.105Z,40.67
2023-03-06T18:10:39.307Z,39.63
2023-03-06T18:13:06.113Z,40.55
2023-03-06T18:15:32.583Z,38.45
2023-03-06T18:17:59.261Z,37.83
2023-03-06T18:20:25.735Z,43.55
2023-03-06T18:22:52.146Z,41.03
2023-03-06T18:25:18.718Z,43.42
2023-03-06T18:27:45.145Z,39.03
2023-03-06T18:30:12.017Z,44.67
2023-03-06T18:32:38.530Z,43.83
2023-03-06T18:35:05.496Z,43.53
2023-03-06T18:37:31.907Z,47.75
2023-03-06T18:39:58.559Z,47.90
2023-03-06T18:42:24.998Z,47.97
2023-03-06T18:44:51.433Z,50.45
2023-03-06T18:47:17.962Z,49.90
2023-03-06T18:49:44.450Z,51.05
2023-03-06T18:52:11.637Z,44.38
2023-03-06T18:54:38.533Z,49.57
2023-03-06T18:57:05.250Z,44.75
2023-03-06T18:59:31.804Z,48.13
2023-03-06T19:01:58.296Z,46.30
2023-03-06T19:04:26.339Z,47.35
2023-03-06T19:06:52.939Z,49.17
2023-03-06T19:09:19.451Z,48.85
2023-03-06T19:11:45.963Z,50.08
2023-03-06T19:14:13.852Z,49.60
2023-03-06T19:16:40.452Z,47.00
2023-03-06T19:19:07.123Z,48.27
2023-03-06T19:21:33.680Z,47.55
2023-03-06T19:24:02.085Z,55.92
2023-03-06T19:26:28.670Z,57.95
2023-03-06T19:28:55.230Z,53.15
2023-03-06T19:31:27.594Z,58.00
2023-03-06T19:33:55.866Z,57.50
2023-03-06T19:36:24.445Z,50.90
2023-03-06T19:38:54.037Z,43.80
2023-03-06T19:41:20.825Z,45.58
2023-03-06T19:43:50.514Z,41.40
2023-03-06T19:46:17.010Z,49.28
2023-03-06T19:48:44.007Z,44.55
2023-03-06T19:51:11.034Z,47.00
2023-03-06T19:53:37.583Z,51.70
2023-03-06T19:56:07.910Z,51.23
2023-03-06T19:58:35.676Z,47.15
2023-03-06T20:01:13.446Z,50.08
2023-03-06T20:03:39.966Z,49.35
2023-03-06T20:06:07.653Z,57.20
2023-03-06T20:08:34.774Z,49.07
2023-03-06T20:11:01.628Z,47.35
2023-03-06T20:13:28.203Z,48.00
2023-03-06T20:15:54.755Z,47.17
2023-03-06T20:18:21.237Z,46.53
2023-03-06T20:20:58.448Z,41.93
2023-03-06T20:23:25.097Z,45.15
2023-03-06T20:25:51.546Z,42.90
2023-03-06T20:28:17.993Z,36.85
2023-03-06T20:30:44.499Z,29.77
2023-03-06T20:33:10.961Z,18.63
2023-03-06T20:35:41.356Z,33.85
2023-03-06T20:38:08.572Z,20.70
2023-03-06T20:40:39.563Z,21.27
2023-03-06T20:43:06.638Z,18.73
2023-03-06T20:45:34.231Z,16.03
2023-03-06T20:48:00.835Z,17.40
2023-03-06T20:50:28.497Z,15.80
2023-03-06T20:52:56.579Z,18.15
2023-03-06T20:55:23.256Z,19.70
2023-03-06T20:57:53.026Z,15.90
2023-03-06T21:00:19.976Z,16.73
2023-03-06T21:02:46.612Z,14.95
2023-03-06T21:05:13.303Z,13.90
2023-03-06T21:07:39.828Z,16.33
2023-03-06T21:10:07.039Z,19.83
2023-03-06T21:12:33.487Z,22.75
2023-03-06T21:14:59.970Z,19.10
2023-03-06T21:17:27.677Z,20.13
2023-03-06T21:19:54.184Z,21.98
2023-03-06T21:22:20.713Z,22.80
2023-03-06T21:24:47.370Z,19.02
2023-03-06T21:27:13.844Z,20.65
2023-03-06T21:29:40.309Z,20.42
2023-03-06T21:32:06.905Z,23.27
2023-03-06T21:34:33.463Z,21.23
2023-03-06T21:37:00.026Z,24.15
2023-03-06T21:39:26.492Z,23.70
2023-03-06T21:41:52.936Z,23.38
2023-03-06T21:44:19.361Z,26.52
2023-03-06T21:46:45.812Z,26.27
2023-03-06T21:49:12.270Z,28.98
2023-03-06T21:51:38.740Z,29.67
2023-03-06T21:54:06.626Z,27.85
2023-03-06T21:56:33.127Z,31.70
2023-03-06T21:58:59.635Z,32.30
2023-03-06T22:01:28.051Z,38.60
2023-03-06T22:03:54.755Z,36.05
2023-03-06T22:06:24.361Z,33.97
2023-03-06T22:08:51.544Z,32.25
2023-03-06T22:11:19.888Z,34.00
2023-03-06T22:13:47.125Z,27.05
2023-03-06T22:16:14.782Z,28.63
2023-03-06T22:18:45.105Z,28.95
2023-03-06T22:21:14.055Z,22.52
2023-03-06T22:23:40.693Z,15.93
2023-03-06T22:26:12.994Z,15.70
2023-03-06T22:28:40.212Z,13.77
2023-03-06T22:31:15.110Z,13.10
2023-03-06T22:33:42.266Z,12.25
2023-03-06T22:36:11.394Z,13.97
2023-03-06T22:38:40.719Z,11.40
2023-03-06T22:41:08.582Z,13.38
2023-03-06T22:43:35.872Z,14.90
2023-03-06T22:46:04.583Z,13.98
2023-03-06T22:48:31.429Z,15.77
2023-03-06T22:51:20.627Z,11.20
2023-03-06T22:53:48.019Z,12.93
2023-03-06T22:56:17.202Z,13.27
2023-03-06T22:58:44.308Z,9.80
2023-03-06T23:01:13.983Z,13.57
2023-03-06T23:03:43.072Z,9.63
2023-03-06T23:06:12.386Z,9.93
2023-03-06T23:08:39.141Z,11.05
2023-03-06T23:11:11.049Z,8.68
2023-03-06T23:13:37.776Z,8.17
2023-03-06T23:16:05.919Z,11.32
2023-03-06T23:18:33.889Z,8.60
2023-03-06T23:21:00.359Z,10.95
2023-03-06T23:23:26.911Z,9.43
2023-03-06T23:25:59.237Z,9.50
2023-03-06T23:28:26.442Z,8.20
2023-03-06T23:30:53.031Z,8.50
2023-03-06T23:33:19.507Z,9.90
2023-03-06T23:35:46.072Z,8.27
2023-03-06T23:38:12.958Z,8.47
2023-03-06T23:40:39.459Z,10.07
2023-03-06T23:43:05.940Z,9.93
2023-03-06T23:45:32.616Z,9.25
2023-03-06T23:47:59.105Z,7.60
2023-03-06T23:50:25.975Z,11.83
2023-03-06T23:52:53.417Z,7.65
2023-03-06T23:55:20.149Z,7.20
2023-03-06T23:57:46.814Z,7.78
